Time;durP1;ratioP1;P1;durP2;ratioP2;P2;SDS_P1;SDS_P2;PMS_P1;PMS_P2;Temp;Humidity;BMP_temperature;BMP_pressure;BME280_temperature;BME280_humidity;BME280_pressure;Samples;Min_cycle;Max_cycle;Signal;HPM_P1;HPM_P2
2022/11/15 00:00:32;;;;;;;2.78;1.70;;;19.00;67.30;;;;;;6150763;23;46532;-68
2022/11/15 00:02:58;;;;;;;4.03;1.70;;;19.00;67.40;;;;;;6151315;23;45284;-68
2022/11/15 00:05:26;;;;;;;2.28;1.60;;;19.00;67.30;;;;;;6151559;23;45455;-68
2022/11/15 00:07:52;;;;;;;2.65;1.60;;;19.00;67.40;;;;;;6151483;23;45451;-68
2022/11/15 00:10:19;;;;;;;2.25;1.40;;;19.00;67.50;;;;;;6150845;23;45367;-69
2022/11/15 00:12:46;;;;;;;3.17;1.83;;;19.00;67.40;;;;;;6151792;23;45313;-68
2022/11/15 00:15:12;;;;;;;2.17;1.70;;;19.00;67.50;;;;;;6151055;23;45369;-68
2022/11/15 00:17:41;;;;;;;3.28;1.80;;;19.00;67.30;;;;;;6152412;23;45201;-68
2022/11/15 00:20:09;;;;;;;2.03;1.40;;;19.00;67.30;;;;;;6151697;23;46286;-68
2022/11/15 00:22:35;;;;;;;3.03;1.58;;;19.00;67.30;;;;;;6150610;23;45273;-68
2022/11/15 00:25:03;;;;;;;2.42;1.80;;;19.00;67.30;;;;;;6151822;23;45268;-68
2022/11/15 00:27:29;;;;;;;3.05;1.63;;;19.00;67.30;;;;;;6152107;23;45545;-68
2022/11/15 00:29:56;;;;;;;2.53;1.65;;;19.00;67.30;;;;;;6150819;23;46588;-68
2022/11/15 00:32:23;;;;;;;2.65;1.58;;;19.00;67.10;;;;;;6149593;23;45399;-68
2022/11/15 00:34:51;;;;;;;2.28;1.73;;;19.00;67.30;;;;;;6152092;23;45438;-68
2022/11/15 00:37:18;;;;;;;1.95;1.40;;;19.00;67.20;;;;;;6150420;23;45337;-68
2022/11/15 00:39:44;;;;;;;1.48;1.33;;;19.00;67.20;;;;;;6151931;23;46585;-67
2022/11/15 00:42:11;;;;;;;2.40;1.70;;;19.00;67.30;;;;;;6150305;23;45292;-68
2022/11/15 00:44:38;;;;;;;2.72;1.38;;;19.00;67.30;;;;;;6152340;23;45330;-68
2022/11/15 00:47:05;;;;;;;2.38;1.80;;;19.00;67.30;;;;;;6152193;23;45372;-67
2022/11/15 00:49:31;;;;;;;1.90;1.40;;;19.00;67.30;;;;;;6151819;23;47515;-68
2022/11/15 00:51:59;;;;;;;1.98;1.35;;;19.00;67.50;;;;;;6151418;23;45254;-68
2022/11/15 00:54:26;;;;;;;1.92;1.50;;;19.00;67.60;;;;;;6152131;23;45508;-67
2022/11/15 00:56:53;;;;;;;2.47;1.60;;;19.00;67.70;;;;;;6152657;23;45417;-68
2022/11/15 00:59:20;;;;;;;1.98;1.40;;;19.00;67.70;;;;;;6152353;23;46574;-68
2022/11/15 01:01:47;;;;;;;1.48;1.38;;;19.00;67.80;;;;;;6151095;23;45238;-68
2022/11/15 01:04:14;;;;;;;2.28;1.70;;;19.00;67.80;;;;;;6152287;23;45209;-68
2022/11/15 01:06:41;;;;;;;2.13;1.60;;;19.00;67.80;;;;;;6151755;23;45340;-68
2022/11/15 01:09:09;;;;;;;2.03;1.45;;;19.00;67.80;;;;;;6152233;23;47524;-67
2022/11/15 01:11:35;;;;;;;1.90;1.42;;;19.00;67.80;;;;;;6150798;23;45248;-68
2022/11/15 01:14:02;;;;;;;2.42;1.48;;;19.00;68.00;;;;;;6152426;23;45408;-68
2022/11/15 01:16:29;;;;;;;2.28;1.38;;;19.00;68.00;;;;;;6152514;23;45360;-68
2022/11/15 01:18:56;;;;;;;1.67;1.40;;;19.10;68.00;;;;;;6151679;23;47070;-68
2022/11/15 01:21:23;;;;;;;2.78;1.58;;;19.10;68.00;;;;;;6151652;23;45273;-67
2022/11/15 01:23:53;;;;;;;3.00;1.80;;;19.10;68.00;;;;;;6152104;23;45234;-68
2022/11/15 01:26:21;;;;;;;2.42;1.60;;;19.10;68.00;;;;;;6152258;23;45342;-68
2022/11/15 01:28:48;;;;;;;2.05;1.67;;;19.00;68.00;;;;;;6151593;23;45372;-68
2022/11/15 01:31:18;;;;;;;2.20;1.40;;;19.00;68.00;;;;;;6151233;23;45320;-68
2022/11/15 01:33:45;;;;;;;2.30;1.73;;;19.00;67.90;;;;;;6152381;23;45373;-68
2022/11/15 01:36:14;;;;;;;2.85;1.50;;;19.00;68.00;;;;;;6151932;23;45402;-68
2022/11/15 01:38:41;;;;;;;2.13;1.50;;;19.00;68.00;;;;;;6152290;23;47166;-68
2022/11/15 01:41:14;;;;;;;1.88;1.52;;;19.00;68.00;;;;;;6148764;23;45182;-68
2022/11/15 01:43:42;;;;;;;2.28;1.63;;;19.00;68.00;;;;;;6152423;23;45317;-68
2022/11/15 01:46:23;;;;;;;2.40;1.60;;;19.00;68.10;;;;;;6151590;23;45318;-68
2022/11/15 01:48:52;;;;;;;2.22;1.50;;;19.00;68.10;;;;;;6152044;23;48386;-68
2022/11/15 01:51:22;;;;;;;1.42;1.13;;;19.00;68.20;;;;;;6150915;23;45246;-68
2022/11/15 01:53:53;;;;;;;1.80;1.33;;;19.00;68.20;;;;;;6152201;23;45346;-68
2022/11/15 01:56:24;;;;;;;1.70;1.58;;;19.00;69.20;;;;;;6152103;23;45235;-68
2022/11/15 01:58:53;;;;;;;1.30;1.10;;;19.00;68.30;;;;;;6151676;23;46357;-68
2022/11/15 02:01:20;;;;;;;2.15;1.48;;;19.00;68.40;;;;;;6150682;23;45165;-68
2022/11/15 02:03:52;;;;;;;1.38;1.15;;;19.00;68.50;;;;;;6151138;23;45290;-68
2022/11/15 02:06:20;;;;;;;2.10;1.25;;;19.00;68.40;;;;;;6152081;23;45249;-67
2022/11/15 02:08:48;;;;;;;1.67;1.30;;;19.00;68.40;;;;;;6151093;23;48709;-68
2022/11/15 02:11:15;;;;;;;1.50;1.35;;;19.10;68.60;;;;;;6150720;23;45401;-68
2022/11/15 02:13:43;;;;;;;3.00;1.55;;;19.10;68.60;;;;;;6152030;23;45293;-68
2022/11/15 02:16:19;;;;;;;2.03;1.27;;;19.10;68.60;;;;;;6150835;23;45332;-68
2022/11/15 02:18:53;;;;;;;2.28;1.30;;;19.00;68.60;;;;;;6151835;23;45371;-68
2022/11/15 02:21:29;;;;;;;2.15;1.48;;;19.10;68.60;;;;;;6150463;23;45299;-68
2022/11/15 02:24:34;;;;;;;4.22;1.60;;;19.10;68.70;;;;;;6152152;23;45390;-68
2022/11/15 02:27:24;;;;;;;2.20;1.20;;;19.10;68.70;;;;;;6151243;23;45278;-68
2022/11/15 02:30:23;;;;;;;1.77;1.30;;;19.10;68.70;;;;;;6152158;23;47590;-68
2022/11/15 02:32:55;;;;;;;3.20;1.33;;;19.00;68.60;;;;;;6031712;23;45410;-68
2022/11/15 02:35:34;;;;;;;2.20;1.45;;;19.10;68.70;;;;;;6130218;23;45416;-68
2022/11/15 02:38:12;;;;;;;1.40;1.10;;;19.10;68.70;;;;;;6152958;23;45370;-68
2022/11/15 02:40:46;;;;;;;1.70;1.20;;;19.00;68.60;;;;;;6152034;23;47514;-67
2022/11/15 02:46:13;;;;;;;1.85;1.20;;;19.00;68.70;;;;;;6153086;23;45457;-68
2022/11/15 02:48:42;;;;;;;2.13;1.23;;;19.00;68.70;;;;;;6153223;23;45154;-68
2022/11/15 02:51:10;;;;;;;1.60;1.33;;;19.00;68.80;;;;;;6151465;23;46191;-68
2022/11/15 02:53:36;;;;;;;2.22;1.40;;;19.00;68.90;;;;;;6153277;23;45354;-68
2022/11/15 02:56:03;;;;;;;1.60;1.30;;;19.00;68.90;;;;;;6152237;23;45349;-67
2022/11/15 02:59:01;;;;;;;1.63;1.30;;;19.00;68.90;;;;;;6153277;23;45392;-67
2022/11/15 03:01:39;;;;;;;2.97;1.23;;;19.00;68.90;;;;;;6085585;23;46371;-68
2022/11/15 03:04:18;;;;;;;2.38;1.20;;;19.00;68.90;;;;;;6152945;23;45268;-68
2022/11/15 03:06:53;;;;;;;1.85;1.30;;;19.00;69.10;;;;;;6152458;23;45488;-68
2022/11/15 03:09:29;;;;;;;1.63;1.05;;;19.00;69.00;;;;;;6153199;23;45162;-68
2022/11/15 03:12:04;;;;;;;2.10;1.25;;;19.00;69.10;;;;;;6151112;23;47092;-68
2022/11/15 03:14:35;;;;;;;1.75;1.38;;;19.10;69.20;;;;;;6153108;23;46217;-67
2022/11/15 03:17:13;;;;;;;2.08;1.25;;;19.00;69.10;;;;;;6152806;23;45382;-68
2022/11/15 03:19:44;;;;;;;2.08;1.15;;;19.10;69.20;;;;;;6153364;23;45371;-68
2022/11/15 03:22:16;;;;;;;1.67;1.42;;;19.10;69.20;;;;;;6152260;23;46271;-68
2022/11/15 03:24:46;;;;;;;1.25;1.02;;;19.10;69.30;;;;;;6152127;23;45545;-67
2022/11/15 03:27:16;;;;;;;1.70;1.05;;;19.10;69.30;;;;;;6152852;23;45371;-68
2022/11/15 03:29:47;;;;;;;2.17;1.52;;;19.10;69.30;;;;;;6152686;23;45369;-68
2022/11/15 03:32:19;;;;;;;2.28;1.23;;;19.10;69.30;;;;;;6151672;23;46259;-67
2022/11/15 03:34:51;;;;;;;1.75;1.20;;;19.10;69.30;;;;;;6152792;23;45692;-68
2022/11/15 03:37:21;;;;;;;1.98;1.27;;;19.10;69.40;;;;;;6152782;23;45379;-68
2022/11/15 03:39:48;;;;;;;1.88;1.50;;;19.10;69.40;;;;;;6152651;23;45238;-68
2022/11/15 03:42:22;;;;;;;1.92;1.40;;;19.00;69.40;;;;;;6150370;23;47057;-67
2022/11/15 03:44:55;;;;;;;2.05;1.40;;;19.10;69.60;;;;;;6152219;23;46119;-68
2022/11/15 03:47:29;;;;;;;1.67;1.13;;;19.10;69.50;;;;;;6152136;23;45285;-67
2022/11/15 03:50:00;;;;;;;1.63;1.20;;;19.00;69.50;;;;;;6151661;23;45199;-68
2022/11/15 03:52:31;;;;;;;2.80;1.50;;;19.00;69.60;;;;;;6151182;23;46491;-68
2022/11/15 03:55:01;;;;;;;2.15;1.10;;;19.00;69.40;;;;;;6152867;23;45429;-68
2022/11/15 03:57:28;;;;;;;1.88;1.27;;;19.10;69.60;;;;;;6151987;23;45238;-68
2022/11/15 03:59:55;;;;;;;1.70;1.20;;;19.00;69.60;;;;;;6152893;23;45505;-68
2022/11/15 04:02:23;;;;;;;1.30;1.15;;;19.00;69.60;;;;;;6151535;23;47263;-68
2022/11/15 04:04:50;;;;;;;1.95;1.38;;;19.00;69.70;;;;;;6150449;23;45233;-68
2022/11/15 04:07:17;;;;;;;2.50;1.50;;;19.00;69.80;;;;;;6152325;23;45220;-68
2022/11/15 04:12:36;;;;;;;2.00;1.10;;;19.10;69.90;;;;;;6151634;23;45230;-68
2022/11/15 04:15:09;;;;;;;2.15;1.02;;;19.00;69.80;;;;;;6152173;23;45317;-68
2022/11/15 04:17:39;;;;;;;1.58;1.30;;;19.10;69.90;;;;;;6152889;23;45206;-68
2022/11/15 04:25:39;;;;;;;2.20;1.30;;;19.10;69.90;;;;;;6152147;23;45334;-68
2022/11/15 04:28:06;;;;;;;1.40;1.00;;;19.10;69.90;;;;;;6152498;23;45234;-68
2022/11/15 04:30:32;;;;;;;1.58;1.10;;;19.10;69.90;;;;;;6152460;23;45258;-68
2022/11/15 04:33:00;;;;;;;2.15;1.27;;;19.10;70.00;;;;;;6151029;23;47495;-68
2022/11/15 04:35:28;;;;;;;1.35;1.23;;;19.10;70.00;;;;;;6152186;23;45330;-68
2022/11/15 04:37:55;;;;;;;1.20;1.00;;;19.10;70.10;;;;;;6152359;23;45212;-68
2022/11/15 04:40:22;;;;;;;1.98;1.25;;;19.10;70.10;;;;;;6152023;23;45318;-68
2022/11/15 04:42:49;;;;;;;1.67;1.10;;;19.10;70.00;;;;;;6149844;23;45389;-68
2022/11/15 04:45:16;;;;;;;1.45;1.10;;;19.10;70.10;;;;;;6151994;23;45317;-68
2022/11/15 04:47:45;;;;;;;1.30;1.00;;;19.10;70.10;;;;;;6150002;23;45294;-68
2022/11/15 04:50:14;;;;;;;1.45;1.20;;;19.10;70.20;;;;;;6151568;23;45333;-68
2022/11/15 04:52:42;;;;;;;1.98;1.20;;;19.10;70.20;;;;;;6150185;23;47395;-67
2022/11/15 04:55:09;;;;;;;1.90;1.25;;;19.10;70.30;;;;;;6151056;23;45487;-68
2022/11/15 04:57:35;;;;;;;1.42;1.08;;;19.10;70.30;;;;;;6152339;23;45154;-68
2022/11/15 05:00:04;;;;;;;1.77;1.27;;;19.10;70.30;;;;;;6152280;23;45202;-68
2022/11/15 05:04:18;;;;;;;2.47;1.25;;;19.10;70.40;;;;;;6151016;23;47167;-68
2022/11/15 05:05:18;;;;;;;1.63;1.17;;;19.10;70.50;;;;;;6151695;23;45402;-67
2022/11/15 05:07:45;;;;;;;1.45;1.25;;;19.10;70.50;;;;;;6151987;23;45477;-68
2022/11/15 05:10:12;;;;;;;1.85;1.15;;;19.10;70.50;;;;;;6152071;23;45490;-68
2022/11/15 05:12:39;;;;;;;1.48;1.20;;;19.10;70.50;;;;;;6150986;23;48519;-68
2022/11/15 05:15:06;;;;;;;2.38;0.90;;;19.10;70.50;;;;;;6152024;23;45432;-68
2022/11/15 05:17:33;;;;;;;1.75;1.20;;;19.10;70.50;;;;;;6151934;23;45510;-68
2022/11/15 05:20:00;;;;;;;1.58;0.98;;;19.10;70.50;;;;;;6152471;23;45214;-67
2022/11/15 05:22:28;;;;;;;0.98;0.90;;;19.10;70.50;;;;;;6150594;23;45239;-68
2022/11/15 05:24:55;;;;;;;1.15;1.02;;;19.10;70.50;;;;;;6151352;23;45305;-68
2022/11/15 05:27:22;;;;;;;1.48;1.08;;;19.10;70.40;;;;;;6151770;23;45440;-68
2022/11/15 05:29:48;;;;;;;1.80;1.10;;;19.10;70.50;;;;;;6151006;23;45285;-68
2022/11/15 05:32:17;;;;;;;1.00;0.90;;;19.10;70.50;;;;;;6149171;23;45226;-69
2022/11/15 05:34:44;;;;;;;1.88;1.10;;;19.10;70.50;;;;;;6151246;23;45679;-68
2022/11/15 05:37:11;;;;;;;1.02;0.85;;;19.10;70.50;;;;;;6152045;23;45383;-68
2022/11/15 05:39:39;;;;;;;2.05;1.23;;;19.10;70.60;;;;;;6151713;23;45361;-68
2022/11/15 05:42:10;;;;;;;1.20;1.00;;;19.10;70.50;;;;;;6149085;23;45312;-67
2022/11/15 05:44:38;;;;;;;1.55;1.20;;;19.10;70.50;;;;;;6152073;23;45859;-68
2022/11/15 05:47:09;;;;;;;2.05;1.13;;;19.10;70.50;;;;;;6150941;23;45367;-68
2022/11/15 05:49:37;;;;;;;1.73;1.15;;;19.10;70.60;;;;;;6150814;23;45337;-68
2022/11/15 05:52:07;;;;;;;1.60;1.00;;;19.10;70.50;;;;;;6150358;23;45450;-68
2022/11/15 05:54:36;;;;;;;1.98;1.15;;;19.10;70.40;;;;;;6151837;23;45356;-68
2022/11/15 05:57:06;;;;;;;1.10;0.85;;;19.10;70.30;;;;;;6152137;23;45260;-68
2022/11/15 05:59:34;;;;;;;1.27;1.00;;;19.10;70.30;;;;;;6151958;23;45307;-68
2022/11/15 06:02:00;;;;;;;1.65;1.10;;;19.10;70.10;;;;;;6150487;23;47557;-68
2022/11/15 06:04:28;;;;;;;2.28;1.08;;;19.10;70.10;;;;;;6151755;23;45707;-68
2022/11/15 06:06:54;;;;;;;1.60;1.13;;;19.00;70.00;;;;;;6151310;23;45310;-67
2022/11/15 06:09:21;;;;;;;2.33;1.52;;;19.10;70.00;;;;;;6150267;23;45253;-68
2022/11/15 06:11:49;;;;;;;1.83;1.40;;;19.00;70.00;;;;;;6149863;23;46802;-68
2022/11/15 06:14:17;;;;;;;1.45;1.17;;;19.00;70.10;;;;;;6151914;23;45257;-67
2022/11/15 06:16:44;;;;;;;1.83;1.20;;;19.00;70.20;;;;;;6150712;23;45412;-68
2022/11/15 06:19:11;;;;;;;1.98;1.25;;;19.00;70.30;;;;;;6151871;23;45336;-68
2022/11/15 06:21:38;;;;;;;1.17;1.08;;;19.00;70.40;;;;;;6148799;23;46292;-68
2022/11/15 06:24:06;;;;;;;2.13;1.02;;;19.00;70.50;;;;;;6150642;23;45440;-68
2022/11/15 06:26:33;;;;;;;1.02;0.75;;;19.10;70.60;;;;;;6150592;23;45340;-68
2022/11/15 06:28:59;;;;;;;1.55;1.13;;;19.10;70.70;;;;;;6150671;23;45397;-68
2022/11/15 06:31:28;;;;;;;1.17;0.90;;;19.10;70.70;;;;;;6148713;23;46566;-68
2022/11/15 06:33:54;;;;;;;1.40;0.90;;;19.10;70.80;;;;;;6150435;23;45252;-68
2022/11/15 06:36:21;;;;;;;1.33;0.90;;;19.10;70.80;;;;;;6151168;23;45342;-68
2022/11/15 06:38:48;;;;;;;1.65;1.20;;;19.10;70.80;;;;;;6151383;23;45405;-67
2022/11/15 06:41:16;;;;;;;0.82;0.80;;;19.10;70.80;;;;;;6148239;23;46822;-67
2022/11/15 06:43:43;;;;;;;1.17;0.90;;;19.10;71.00;;;;;;6151504;23;45369;-68
2022/11/15 06:46:10;;;;;;;1.48;0.90;;;19.10;70.90;;;;;;6151086;23;45514;-68
2022/11/15 06:48:39;;;;;;;1.30;0.90;;;19.10;71.00;;;;;;6150958;23;45337;-68
2022/11/15 06:51:07;;;;;;;1.50;1.10;;;19.10;71.00;;;;;;6150666;23;45466;-68
2022/11/15 06:53:34;;;;;;;1.25;0.90;;;19.10;71.20;;;;;;6151430;23;45180;-68
2022/11/15 06:56:01;;;;;;;1.13;0.90;;;19.10;71.20;;;;;;6151263;23;45312;-67
2022/11/15 06:58:28;;;;;;;1.17;0.98;;;19.10;71.30;;;;;;6151143;23;45607;-68
2022/11/15 07:00:59;;;;;;;1.98;0.98;;;19.10;71.40;;;;;;6150558;23;45441;-68
2022/11/15 07:03:26;;;;;;;1.48;0.88;;;19.10;71.40;;;;;;6150416;23;45427;-67
2022/11/15 07:05:56;;;;;;;0.90;0.80;;;19.10;71.40;;;;;;6150795;23;45238;-68
2022/11/15 07:08:23;;;;;;;2.03;0.85;;;19.10;71.40;;;;;;6151132;23;45242;-68
2022/11/15 07:10:50;;;;;;;1.10;0.70;;;19.10;71.50;;;;;;6150249;23;46563;-67
2022/11/15 07:13:17;;;;;;;0.98;0.50;;;19.10;71.50;;;;;;6150431;23;45277;-68
2022/11/15 07:15:44;;;;;;;1.42;0.80;;;19.10;71.50;;;;;;6146526;23;45355;-67
2022/11/15 07:18:11;;;;;;;1.10;0.60;;;19.10;71.50;;;;;;6152133;23;45415;-67
2022/11/15 07:20:39;;;;;;;0.68;0.65;;;19.00;71.40;;;;;;6151578;23;45446;-68
2022/11/15 07:23:07;;;;;;;1.05;0.75;;;19.00;71.50;;;;;;6151648;23;45233;-68
2022/11/15 07:25:34;;;;;;;0.80;0.65;;;19.10;71.50;;;;;;6152315;23;45306;-68
2022/11/15 07:28:02;;;;;;;3.00;0.90;;;19.10;71.50;;;;;;6151760;23;45430;-67
2022/11/15 07:30:29;;;;;;;3.33;0.75;;;19.10;72.40;;;;;;6151922;23;47078;-68
2022/11/15 07:32:58;;;;;;;2.25;0.93;;;19.10;72.10;;;;;;6150840;23;46200;-69
2022/11/15 07:35:26;;;;;;;5.28;0.73;;;19.10;71.90;;;;;;6152197;23;45389;-68
2022/11/15 07:37:58;;;;;;;0.88;0.50;;;19.10;71.80;;;;;;6152359;23;45215;-69
2022/11/15 07:40:27;;;;;;;1.40;0.80;;;19.10;71.80;;;;;;6151772;23;48041;-69
2022/11/15 07:42:59;;;;;;;1.15;0.60;;;19.10;71.80;;;;;;6148244;23;45262;-69
2022/11/15 07:45:27;;;;;;;3.30;0.80;;;19.10;71.80;;;;;;6151610;23;45318;-68
2022/11/15 07:47:55;;;;;;;0.85;0.60;;;19.10;72.80;;;;;;6150926;23;45272;-69
2022/11/15 07:50:22;;;;;;;1.63;0.80;;;19.10;71.80;;;;;;6151113;23;46435;-69
2022/11/15 07:52:55;;;;;;;0.82;0.70;;;19.10;71.90;;;;;;6151364;23;45250;-68
2022/11/15 07:55:21;;;;;;;1.85;0.70;;;19.10;71.80;;;;;;6152265;23;45313;-68
2022/11/15 07:57:50;;;;;;;0.50;0.50;;;19.10;71.70;;;;;;6151844;23;45507;-69
2022/11/15 08:00:17;;;;;;;1.13;0.55;;;19.10;71.80;;;;;;6152034;23;48173;-69
2022/11/15 08:02:44;;;;;;;0.77;0.57;;;19.10;71.90;;;;;;6148809;23;45220;-69
2022/11/15 08:05:11;;;;;;;1.08;0.70;;;19.10;72.10;;;;;;6152266;23;45338;-69
2022/11/15 08:07:39;;;;;;;1.63;0.85;;;19.10;72.20;;;;;;6152124;23;45284;-69
2022/11/15 08:10:08;;;;;;;1.95;0.70;;;19.00;72.20;;;;;;6151967;23;46361;-69
2022/11/15 08:12:35;;;;;;;0.80;0.50;;;19.00;72.30;;;;;;6152011;23;45419;-69
2022/11/15 08:15:03;;;;;;;1.75;0.40;;;19.00;72.30;;;;;;6152600;23;45282;-69
2022/11/15 08:17:32;;;;;;;0.95;0.68;;;19.00;72.40;;;;;;6151498;23;45289;-68
2022/11/15 08:19:59;;;;;;;0.60;0.50;;;19.00;72.50;;;;;;6151148;23;45494;-68
2022/11/15 08:22:26;;;;;;;0.50;0.40;;;19.00;72.40;;;;;;6150913;23;45241;-68
2022/11/15 08:24:53;;;;;;;1.08;0.60;;;19.00;72.20;;;;;;6151253;23;45246;-68
2022/11/15 08:27:19;;;;;;;1.02;0.60;;;19.00;71.90;;;;;;6151552;23;45254;-68
2022/11/15 08:29:48;;;;;;;0.80;0.60;;;19.00;71.60;;;;;;6149803;23;47531;-68
2022/11/15 08:32:17;;;;;;;1.47;0.50;;;19.00;71.40;;;;;;6148897;23;45382;-68
2022/11/15 08:34:44;;;;;;;0.45;0.43;;;19.00;71.20;;;;;;6151898;23;45315;-68
2022/11/15 08:37:11;;;;;;;0.90;0.52;;;19.00;71.20;;;;;;6150668;23;45737;-68
2022/11/15 08:39:38;;;;;;;0.60;0.50;;;19.00;70.90;;;;;;6152106;23;47006;-69
2022/11/15 08:42:05;;;;;;;0.50;0.45;;;19.00;70.70;;;;;;6151271;23;45302;-68
2022/11/15 08:44:31;;;;;;;1.05;0.50;;;19.00;70.70;;;;;;6151789;23;45359;-68
2022/11/15 08:46:58;;;;;;;0.98;0.50;;;19.00;70.60;;;;;;6152200;23;45357;-69
2022/11/15 08:49:26;;;;;;;0.73;0.40;;;19.00;70.40;;;;;;6149853;23;47502;-68
2022/11/15 08:51:53;;;;;;;1.33;0.45;;;19.00;70.30;;;;;;6151265;23;45494;-68
2022/11/15 08:54:19;;;;;;;0.43;0.38;;;19.00;70.20;;;;;;6149440;23;45345;-68
2022/11/15 08:56:46;;;;;;;0.63;0.40;;;19.00;70.30;;;;;;6149710;23;45525;-68
2022/11/15 08:59:13;;;;;;;0.50;0.30;;;19.10;70.50;;;;;;6150601;23;47048;-68
2022/11/15 09:01:39;;;;;;;0.85;0.40;;;19.10;70.40;;;;;;6148992;23;45279;-68
2022/11/15 09:04:06;;;;;;;0.60;0.40;;;19.10;70.50;;;;;;6152470;23;45536;-68
2022/11/15 09:06:34;;;;;;;1.13;0.70;;;19.10;70.60;;;;;;6151666;23;45515;-68
2022/11/15 09:09:02;;;;;;;0.60;0.50;;;19.10;70.60;;;;;;6152100;23;48854;-68
2022/11/15 09:11:29;;;;;;;0.60;0.47;;;19.10;70.80;;;;;;6149414;23;45419;-68
2022/11/15 09:13:56;;;;;;;0.77;0.47;;;19.10;70.70;;;;;;6150375;23;45276;-68
2022/11/15 09:16:22;;;;;;;1.75;0.52;;;19.10;71.00;;;;;;6150716;23;45146;-68
2022/11/15 09:18:49;;;;;;;1.23;0.57;;;19.10;70.90;;;;;;6150900;23;47514;-68
2022/11/15 09:21:16;;;;;;;0.98;0.50;;;19.10;71.00;;;;;;6149018;23;45394;-69
2022/11/15 09:23:45;;;;;;;0.93;0.45;;;19.10;71.10;;;;;;6151269;23;45314;-68
2022/11/15 09:26:12;;;;;;;1.02;0.40;;;19.10;71.00;;;;;;6151548;23;45343;-68
2022/11/15 09:28:41;;;;;;;1.45;0.70;;;19.10;71.00;;;;;;6151722;23;47225;-69
2022/11/15 09:31:08;;;;;;;0.30;0.30;;;19.10;71.10;;;;;;6150710;23;45471;-69
2022/11/15 09:33:35;;;;;;;0.60;0.40;;;19.10;71.30;;;;;;6151569;23;45282;-69
2022/11/15 09:36:03;;;;;;;0.45;0.28;;;19.10;71.20;;;;;;6151560;23;45246;-68
2022/11/15 09:38:30;;;;;;;0.77;0.40;;;19.10;71.20;;;;;;6152139;23;46404;-68
2022/11/15 09:41:18;;;;;;;1.23;0.50;;;19.10;71.30;;;;;;6150552;23;45383;-68
2022/11/15 09:43:56;;;;;;;0.88;0.40;;;19.10;71.20;;;;;;6151336;23;45285;-68
2022/11/15 09:46:34;;;;;;;2.25;0.50;;;19.10;71.20;;;;;;6152147;23;45444;-69
2022/11/15 09:49:02;;;;;;;1.20;0.50;;;19.10;71.20;;;;;;6148666;23;48020;-68
2022/11/15 09:51:33;;;;;;;0.70;0.50;;;19.10;71.10;;;;;;6151586;23;45333;-68
2022/11/15 09:54:06;;;;;;;0.88;0.50;;;19.20;71.10;;;;;;6151452;23;45391;-69
2022/11/15 09:56:37;;;;;;;0.40;0.40;;;19.10;71.00;;;;;;6151815;23;45521;-68
2022/11/15 09:59:27;;;;;;;0.75;0.40;;;19.20;71.00;;;;;;6150179;23;47655;-68
2022/11/15 10:01:59;;;;;;;0.60;0.40;;;19.20;71.00;;;;;;6150663;23;45367;-68
2022/11/15 10:04:27;;;;;;;0.60;0.32;;;19.20;71.00;;;;;;6151440;23;45383;-68
2022/11/15 10:07:01;;;;;;;1.20;0.70;;;19.10;70.80;;;;;;6150873;23;45266;-68
2022/11/15 10:09:35;;;;;;;0.60;0.40;;;19.20;70.80;;;;;;6151432;23;46467;-68
2022/11/15 10:12:04;;;;;;;0.45;0.40;;;19.20;70.80;;;;;;6148659;23;45361;-68
2022/11/15 10:14:32;;;;;;;1.27;0.45;;;19.20;70.70;;;;;;6151953;23;45310;-68
2022/11/15 10:17:25;;;;;;;0.77;0.57;;;19.20;70.70;;;;;;6151148;23;45477;-68
2022/11/15 10:20:01;;;;;;;0.38;0.38;;;19.20;70.70;;;;;;6151404;23;46495;-68
2022/11/15 10:22:31;;;;;;;0.80;0.50;;;19.20;70.60;;;;;;6150361;23;45440;-69
2022/11/15 10:25:17;;;;;;;0.52;0.40;;;19.20;70.60;;;;;;6150870;23;45241;-69
2022/11/15 10:27:51;;;;;;;0.82;0.47;;;19.20;70.60;;;;;;6151895;23;45237;-68
2022/11/15 10:30:19;;;;;;;1.17;0.35;;;19.20;70.50;;;;;;6150656;23;46536;-69
2022/11/15 10:32:49;;;;;;;0.68;0.40;;;19.20;70.60;;;;;;6150983;23;45303;-69
2022/11/15 10:35:21;;;;;;;0.68;0.50;;;19.20;70.50;;;;;;6150294;23;45524;-68
2022/11/15 10:37:48;;;;;;;0.40;0.35;;;19.20;70.40;;;;;;6149940;23;45449;-69
2022/11/15 10:40:21;;;;;;;0.70;0.40;;;19.20;70.30;;;;;;6148832;23;48071;-69
2022/11/15 10:43:05;;;;;;;0.75;0.40;;;19.20;70.30;;;;;;6149101;23;45305;-69
2022/11/15 10:45:34;;;;;;;0.90;0.52;;;19.20;70.10;;;;;;6150026;23;45272;-68
2022/11/15 10:48:21;;;;;;;0.32;0.25;;;19.20;70.20;;;;;;6148538;23;45400;-69
2022/11/15 10:50:49;;;;;;;1.58;0.55;;;19.30;70.00;;;;;;6150956;23;48300;-68
2022/11/15 10:53:21;;;;;;;0.70;0.40;;;19.30;71.00;;;;;;6151210;23;45731;-69
2022/11/15 10:55:51;;;;;;;1.40;0.30;;;19.30;70.00;;;;;;6151938;23;45412;-68
2022/11/15 10:58:32;;;;;;;0.28;0.28;;;19.20;69.90;;;;;;6152279;23;45361;-69
2022/11/15 11:01:10;;;;;;;1.52;0.52;;;19.30;70.00;;;;;;6151727;23;46268;-68
2022/11/15 11:03:39;;;;;;;0.75;0.35;;;19.20;70.00;;;;;;6151275;23;45390;-69
2022/11/15 11:06:09;;;;;;;0.77;0.40;;;19.20;70.00;;;;;;6151590;23;45268;-69
2022/11/15 11:08:36;;;;;;;0.88;0.40;;;19.20;70.10;;;;;;6152891;23;45190;-68
2022/11/15 11:11:04;;;;;;;0.75;0.30;;;19.20;70.10;;;;;;6151017;23;45277;-68
2022/11/15 11:13:34;;;;;;;0.60;0.30;;;19.20;70.20;;;;;;6150480;23;45402;-69
2022/11/15 11:16:37;;;;;;;0.60;0.40;;;19.20;70.10;;;;;;6152560;23;45310;-69
2022/11/15 11:19:18;;;;;;;0.45;0.25;;;19.20;70.00;;;;;;6152178;23;45331;-69
2022/11/15 11:21:52;;;;;;;0.73;0.30;;;19.20;69.90;;;;;;6151918;23;48017;-69
2022/11/15 11:24:25;;;;;;;1.08;0.50;;;19.20;69.80;;;;;;6152301;23;45488;-69
2022/11/15 11:27:07;;;;;;;0.47;0.40;;;19.20;69.70;;;;;;6152247;23;45386;-68
2022/11/15 11:30:01;;;;;;;1.55;0.40;;;19.20;69.50;;;;;;6152692;23;45301;-69
2022/11/15 11:32:47;;;;;;;0.40;0.40;;;19.20;69.50;;;;;;6150591;23;47344;-69
2022/11/15 11:35:20;;;;;;;1.02;0.50;;;19.20;69.40;;;;;;6155398;23;45239;-69
2022/11/15 11:37:50;;;;;;;1.65;0.47;;;19.20;69.20;;;;;;6152814;23;45303;-68
2022/11/15 11:40:31;;;;;;;0.50;0.30;;;19.20;70.00;;;;;;6152169;23;45312;-69
2022/11/15 11:43:07;;;;;;;0.20;0.20;;;19.20;68.90;;;;;;6149944;23;45306;-69
2022/11/15 11:46:00;;;;;;;1.25;0.45;;;19.20;68.90;;;;;;6151881;23;45393;-68
2022/11/15 11:48:42;;;;;;;0.40;0.30;;;19.20;68.90;;;;;;6150307;23;45201;-69
2022/11/15 11:51:19;;;;;;;1.02;0.30;;;19.20;68.70;;;;;;6152600;23;45352;-69
2022/11/15 11:53:51;;;;;;;0.75;0.30;;;19.20;68.90;;;;;;6150885;23;47145;-69
2022/11/15 11:56:27;;;;;;;0.75;0.30;;;19.20;68.80;;;;;;6151981;23;45366;-69
2022/11/15 11:58:56;;;;;;;0.73;0.35;;;19.20;68.80;;;;;;6152244;23;45300;-68
2022/11/15 12:01:27;;;;;;;0.20;0.20;;;19.20;68.50;;;;;;6151834;23;45528;-69
2022/11/15 12:04:00;;;;;;;0.80;0.50;;;19.20;68.60;;;;;;6151034;23;47400;-69
2022/11/15 12:06:34;;;;;;;0.98;0.50;;;19.20;68.50;;;;;;6151096;23;45231;-69
2022/11/15 12:09:08;;;;;;;1.05;0.32;;;19.20;68.60;;;;;;6152222;23;45283;-69
2022/11/15 12:11:43;;;;;;;0.80;0.30;;;19.20;68.50;;;;;;6149797;23;45254;-68
2022/11/15 12:14:18;;;;;;;0.88;0.30;;;19.20;68.50;;;;;;6152402;23;47758;-68
2022/11/15 12:16:46;;;;;;;1.35;0.50;;;19.20;68.40;;;;;;6151418;23;45294;-68
2022/11/15 12:19:12;;;;;;;0.75;0.30;;;19.20;68.60;;;;;;6152790;23;45186;-69
2022/11/15 12:21:47;;;;;;;0.73;0.40;;;19.20;68.40;;;;;;6151658;23;45440;-68
2022/11/15 12:24:18;;;;;;;0.55;0.30;;;19.20;68.40;;;;;;6151912;23;48104;-68
2022/11/15 12:26:52;;;;;;;0.57;0.38;;;19.20;68.40;;;;;;6152436;23;45238;-69
2022/11/15 12:29:25;;;;;;;1.48;0.30;;;19.20;68.40;;;;;;6151892;23;45258;-68
2022/11/15 12:31:59;;;;;;;0.43;0.30;;;19.20;68.40;;;;;;6151766;23;45451;-68
2022/11/15 12:34:44;;;;;;;0.77;0.30;;;19.20;68.40;;;;;;6150985;23;47399;-68
2022/11/15 12:37:48;;;;;;;0.30;0.30;;;19.20;68.40;;;;;;6152225;23;45257;-69
2022/11/15 12:40:29;;;;;;;0.95;0.35;;;19.20;68.40;;;;;;6150417;23;45309;-69
2022/11/15 12:43:42;;;;;;;0.38;0.30;;;19.20;68.50;;;;;;6150439;23;45242;-69
2022/11/15 12:46:14;;;;;;;0.63;0.30;;;19.20;68.50;;;;;;6151099;23;46468;-68
2022/11/15 12:48:57;;;;;;;0.95;0.47;;;19.20;68.40;;;;;;6149617;23;45329;-69
2022/11/15 12:51:54;;;;;;;0.60;0.20;;;19.20;68.40;;;;;;6151717;23;45430;-68
2022/11/15 12:54:51;;;;;;;0.68;0.30;;;19.20;68.50;;;;;;6127357;23;45593;-69
2022/11/15 12:57:38;;;;;;;0.50;0.25;;;19.20;68.50;;;;;;6152019;23;46566;-69
2022/11/15 13:00:44;;;;;;;0.20;0.20;;;19.20;69.10;;;;;;6152596;23;45357;-68
2022/11/15 13:03:24;;;;;;;1.50;0.40;;;19.20;68.80;;;;;;6149723;23;45293;-69
2022/11/15 13:06:10;;;;;;;0.95;0.45;;;19.20;68.80;;;;;;6150935;23;45530;-68
2022/11/15 13:08:50;;;;;;;0.60;0.30;;;19.20;68.80;;;;;;6151045;23;46483;-69
2022/11/15 13:11:43;;;;;;;0.82;0.47;;;19.20;68.80;;;;;;6149422;23;45234;-69
2022/11/15 13:14:47;;;;;;;0.35;0.17;;;19.20;68.70;;;;;;6151673;23;45270;-68
2022/11/15 13:17:39;;;;;;;0.10;0.10;;;19.20;68.80;;;;;;6151045;23;45445;-69
2022/11/15 13:20:30;;;;;;;0.70;0.30;;;19.20;68.90;;;;;;6152497;23;47317;-68